sensor_id;sensor_type;location;lat;lon;timestamp;P1;durP1;ratioP1;P2;durP2;ratioP2
71665;SDS011;59503;53.486;10.196;2023-05-16T00:01:10;5.45;;;3.90;;
71665;SDS011;59503;53.486;10.196;2023-05-16T00:03:36;9.13;;;3.60;;
71665;SDS011;59503;53.486;10.196;2023-05-16T00:06:02;6.55;;;3.30;;
71665;SDS011;59503;53.486;10.196;2023-05-16T00:08:29;6.93;;;3.92;;
71665;SDS011;59503;53.486;10.196;2023-05-16T00:10:54;6.17;;;4.33;;
71665;SDS011;59503;53.486;10.196;2023-05-16T00:13:20;7.80;;;4.40;;
71665;SDS011;59503;53.486;10.196;2023-05-16T00:15:49;8.20;;;4.53;;
71665;SDS011;59503;53.486;10.196;2023-05-16T00:18:19;7.43;;;4.57;;
71665;SDS011;59503;53.486;10.196;2023-05-16T00:20:46;9.35;;;4.15;;
71665;SDS011;59503;53.486;10.196;2023-05-16T00:23:16;5.47;;;3.78;;
71665;SDS011;59503;53.486;10.196;2023-05-16T00:25:41;8.30;;;4.10;;
71665;SDS011;59503;53.486;10.196;2023-05-16T00:28:07;6.03;;;3.80;;
71665;SDS011;59503;53.486;10.196;2023-05-16T00:30:32;7.10;;;3.83;;
71665;SDS011;59503;53.486;10.196;2023-05-16T00:32:58;8.93;;;4.60;;
71665;SDS011;59503;53.486;10.196;2023-05-16T00:35:23;6.57;;;4.20;;
71665;SDS011;59503;53.486;10.196;2023-05-16T00:37:49;7.37;;;4.53;;
71665;SDS011;59503;53.486;10.196;2023-05-16T00:40:15;6.57;;;3.72;;
71665;SDS011;59503;53.486;10.196;2023-05-16T00:42:40;6.17;;;3.40;;
71665;SDS011;59503;53.486;10.196;2023-05-16T00:45:06;9.33;;;3.40;;
71665;SDS011;59503;53.486;10.196;2023-05-16T00:47:32;4.93;;;3.00;;
71665;SDS011;59503;53.486;10.196;2023-05-16T00:49:57;3.37;;;2.67;;
71665;SDS011;59503;53.486;10.196;2023-05-16T00:52:23;10.00;;;3.30;;
71665;SDS011;59503;53.486;10.196;2023-05-16T00:54:49;5.20;;;3.20;;
71665;SDS011;59503;53.486;10.196;2023-05-16T00:57:15;10.23;;;3.28;;
71665;SDS011;59503;53.486;10.196;2023-05-16T00:59:41;5.47;;;3.00;;
71665;SDS011;59503;53.486;10.196;2023-05-16T01:02:08;6.35;;;3.25;;
71665;SDS011;59503;53.486;10.196;2023-05-16T01:04:33;3.40;;;2.97;;
71665;SDS011;59503;53.486;10.196;2023-05-16T01:07:00;6.80;;;3.08;;
71665;SDS011;59503;53.486;10.196;2023-05-16T01:09:26;4.15;;;2.70;;
71665;SDS011;59503;53.486;10.196;2023-05-16T01:11:54;4.23;;;2.50;;
71665;SDS011;59503;53.486;10.196;2023-05-16T01:28:31;3.83;;;2.13;;
71665;SDS011;59503;53.486;10.196;2023-05-16T01:30:58;6.65;;;1.80;;
71665;SDS011;59503;53.486;10.196;2023-05-16T01:33:24;4.78;;;2.00;;
71665;SDS011;59503;53.486;10.196;2023-05-16T01:35:52;4.10;;;1.70;;
71665;SDS011;59503;53.486;10.196;2023-05-16T01:38:24;3.80;;;1.70;;
71665;SDS011;59503;53.486;10.196;2023-05-16T01:44:01;5.27;;;1.70;;
71665;SDS011;59503;53.486;10.196;2023-05-16T01:46:33;4.35;;;1.90;;
71665;SDS011;59503;53.486;10.196;2023-05-16T01:51:41;4.78;;;1.67;;
71665;SDS011;59503;53.486;10.196;2023-05-16T01:54:13;5.57;;;2.00;;
71665;SDS011;59503;53.486;10.196;2023-05-16T01:56:42;6.77;;;1.90;;
71665;SDS011;59503;53.486;10.196;2023-05-16T01:59:15;5.03;;;2.17;;
71665;SDS011;59503;53.486;10.196;2023-05-16T02:01:42;5.47;;;2.35;;
71665;SDS011;59503;53.486;10.196;2023-05-16T02:04:07;7.77;;;2.63;;
71665;SDS011;59503;53.486;10.196;2023-05-16T02:06:33;6.13;;;2.50;;
71665;SDS011;59503;53.486;10.196;2023-05-16T02:08:58;7.30;;;3.03;;
71665;SDS011;59503;53.486;10.196;2023-05-16T02:11:24;4.87;;;2.70;;
71665;SDS011;59503;53.486;10.196;2023-05-16T02:13:50;6.97;;;2.30;;
71665;SDS011;59503;53.486;10.196;2023-05-16T02:16:15;6.40;;;2.90;;
71665;SDS011;59503;53.486;10.196;2023-05-16T02:18:40;8.93;;;2.63;;
71665;SDS011;59503;53.486;10.196;2023-05-16T02:21:06;8.73;;;2.13;;
71665;SDS011;59503;53.486;10.196;2023-05-16T02:23:31;7.77;;;1.47;;
71665;SDS011;59503;53.486;10.196;2023-05-16T02:25:57;6.80;;;2.57;;
71665;SDS011;59503;53.486;10.196;2023-05-16T02:28:22;8.63;;;1.87;;
71665;SDS011;59503;53.486;10.196;2023-05-16T02:30:57;8.90;;;2.47;;
71665;SDS011;59503;53.486;10.196;2023-05-16T02:33:26;9.52;;;2.10;;
71665;SDS011;59503;53.486;10.196;2023-05-16T02:35:52;8.82;;;1.95;;
71665;SDS011;59503;53.486;10.196;2023-05-16T02:38:18;8.63;;;2.27;;
71665;SDS011;59503;53.486;10.196;2023-05-16T02:40:47;6.47;;;1.88;;
71665;SDS011;59503;53.486;10.196;2023-05-16T02:43:13;6.57;;;1.83;;
71665;SDS011;59503;53.486;10.196;2023-05-16T02:45:38;4.77;;;1.40;;
71665;SDS011;59503;53.486;10.196;2023-05-16T02:48:04;8.27;;;1.50;;
71665;SDS011;59503;53.486;10.196;2023-05-16T02:50:29;5.00;;;1.48;;
71665;SDS011;59503;53.486;10.196;2023-05-16T02:52:55;9.87;;;2.27;;
71665;SDS011;59503;53.486;10.196;2023-05-16T02:55:21;7.30;;;1.35;;
71665;SDS011;59503;53.486;10.196;2023-05-16T02:57:46;10.83;;;1.50;;
71665;SDS011;59503;53.486;10.196;2023-05-16T03:00:11;7.00;;;1.37;;
71665;SDS011;59503;53.486;10.196;2023-05-16T03:02:38;7.38;;;1.45;;
71665;SDS011;59503;53.486;10.196;2023-05-16T03:05:03;10.90;;;1.70;;
71665;SDS011;59503;53.486;10.196;2023-05-16T03:07:30;7.75;;;1.58;;
71665;SDS011;59503;53.486;10.196;2023-05-16T03:09:55;6.97;;;1.50;;
71665;SDS011;59503;53.486;10.196;2023-05-16T03:12:21;4.97;;;1.43;;
71665;SDS011;59503;53.486;10.196;2023-05-16T03:14:46;16.67;;;1.50;;
71665;SDS011;59503;53.486;10.196;2023-05-16T03:17:12;12.33;;;2.17;;
71665;SDS011;59503;53.486;10.196;2023-05-16T03:19:37;11.38;;;2.45;;
71665;SDS011;59503;53.486;10.196;2023-05-16T03:22:02;10.43;;;1.50;;
71665;SDS011;59503;53.486;10.196;2023-05-16T03:24:28;10.33;;;1.70;;
71665;SDS011;59503;53.486;10.196;2023-05-16T03:26:53;10.77;;;2.10;;
71665;SDS011;59503;53.486;10.196;2023-05-16T03:29:19;15.70;;;2.30;;
71665;SDS011;59503;53.486;10.196;2023-05-16T03:31:44;10.43;;;1.90;;
71665;SDS011;59503;53.486;10.196;2023-05-16T03:34:10;9.80;;;2.17;;
71665;SDS011;59503;53.486;10.196;2023-05-16T03:36:35;15.63;;;2.43;;
71665;SDS011;59503;53.486;10.196;2023-05-16T03:39:01;8.20;;;1.87;;
71665;SDS011;59503;53.486;10.196;2023-05-16T03:41:26;17.17;;;2.30;;
71665;SDS011;59503;53.486;10.196;2023-05-16T03:43:51;10.77;;;2.17;;
71665;SDS011;59503;53.486;10.196;2023-05-16T03:46:17;13.67;;;2.33;;
71665;SDS011;59503;53.486;10.196;2023-05-16T03:48:42;6.50;;;1.48;;
71665;SDS011;59503;53.486;10.196;2023-05-16T03:51:08;8.23;;;1.23;;
71665;SDS011;59503;53.486;10.196;2023-05-16T03:53:33;11.32;;;2.25;;
71665;SDS011;59503;53.486;10.196;2023-05-16T03:55:59;11.80;;;1.70;;
71665;SDS011;59503;53.486;10.196;2023-05-16T03:58:24;12.53;;;1.50;;
71665;SDS011;59503;53.486;10.196;2023-05-16T04:00:49;14.00;;;2.10;;
71665;SDS011;59503;53.486;10.196;2023-05-16T04:03:15;14.73;;;1.60;;
71665;SDS011;59503;53.486;10.196;2023-05-16T04:05:40;14.43;;;1.67;;
71665;SDS011;59503;53.486;10.196;2023-05-16T04:08:05;14.07;;;2.63;;
71665;SDS011;59503;53.486;10.196;2023-05-16T04:10:31;16.27;;;1.40;;
71665;SDS011;59503;53.486;10.196;2023-05-16T04:12:56;13.47;;;1.97;;
71665;SDS011;59503;53.486;10.196;2023-05-16T04:15:21;7.93;;;1.13;;
71665;SDS011;59503;53.486;10.196;2023-05-16T04:17:47;19.65;;;1.90;;
71665;SDS011;59503;53.486;10.196;2023-05-16T04:20:13;9.93;;;1.37;;
71665;SDS011;59503;53.486;10.196;2023-05-16T04:22:38;7.47;;;1.53;;
71665;SDS011;59503;53.486;10.196;2023-05-16T04:25:04;8.05;;;1.20;;
71665;SDS011;59503;53.486;10.196;2023-05-16T04:27:29;10.73;;;1.37;;
71665;SDS011;59503;53.486;10.196;2023-05-16T04:29:55;16.42;;;2.15;;
71665;SDS011;59503;53.486;10.196;2023-05-16T04:32:21;13.27;;;1.47;;
71665;SDS011;59503;53.486;10.196;2023-05-16T04:34:47;19.52;;;1.70;;
71665;SDS011;59503;53.486;10.196;2023-05-16T04:37:14;7.30;;;1.17;;
71665;SDS011;59503;53.486;10.196;2023-05-16T04:39:40;14.73;;;1.60;;
71665;SDS011;59503;53.486;10.196;2023-05-16T04:42:06;13.05;;;1.88;;
71665;SDS011;59503;53.486;10.196;2023-05-16T04:44:32;7.87;;;1.90;;
71665;SDS011;59503;53.486;10.196;2023-05-16T04:46:58;14.20;;;2.17;;
71665;SDS011;59503;53.486;10.196;2023-05-16T04:49:23;10.73;;;1.40;;
71665;SDS011;59503;53.486;10.196;2023-05-16T04:51:49;9.00;;;1.30;;
71665;SDS011;59503;53.486;10.196;2023-05-16T04:54:14;13.20;;;1.85;;
71665;SDS011;59503;53.486;10.196;2023-05-16T04:56:40;10.83;;;1.60;;
71665;SDS011;59503;53.486;10.196;2023-05-16T04:59:05;13.57;;;1.50;;
71665;SDS011;59503;53.486;10.196;2023-05-16T05:01:31;13.68;;;1.67;;
71665;SDS011;59503;53.486;10.196;2023-05-16T05:03:56;13.80;;;1.33;;
71665;SDS011;59503;53.486;10.196;2023-05-16T05:06:22;11.73;;;1.20;;
71665;SDS011;59503;53.486;10.196;2023-05-16T05:08:47;27.65;;;2.00;;
71665;SDS011;59503;53.486;10.196;2023-05-16T05:11:13;13.20;;;1.17;;
71665;SDS011;59503;53.486;10.196;2023-05-16T05:13:38;13.95;;;1.00;;
71665;SDS011;59503;53.486;10.196;2023-05-16T05:16:04;9.87;;;1.40;;
71665;SDS011;59503;53.486;10.196;2023-05-16T05:18:30;8.47;;;1.00;;
71665;SDS011;59503;53.486;10.196;2023-05-16T05:20:55;7.95;;;1.23;;
71665;SDS011;59503;53.486;10.196;2023-05-16T05:23:20;8.83;;;1.00;;
71665;SDS011;59503;53.486;10.196;2023-05-16T05:25:46;13.07;;;1.37;;
71665;SDS011;59503;53.486;10.196;2023-05-16T05:28:11;14.30;;;1.67;;
71665;SDS011;59503;53.486;10.196;2023-05-16T05:30:37;9.77;;;1.67;;
71665;SDS011;59503;53.486;10.196;2023-05-16T05:33:02;15.13;;;1.35;;
71665;SDS011;59503;53.486;10.196;2023-05-16T05:35:27;10.10;;;1.10;;
71665;SDS011;59503;53.486;10.196;2023-05-16T05:37:53;9.87;;;1.10;;
71665;SDS011;59503;53.486;10.196;2023-05-16T05:40:18;9.27;;;1.10;;
71665;SDS011;59503;53.486;10.196;2023-05-16T05:42:44;8.10;;;1.73;;
71665;SDS011;59503;53.486;10.196;2023-05-16T05:45:09;9.60;;;1.37;;
71665;SDS011;59503;53.486;10.196;2023-05-16T05:47:35;6.35;;;1.20;;
71665;SDS011;59503;53.486;10.196;2023-05-16T05:50:00;14.73;;;1.47;;
71665;SDS011;59503;53.486;10.196;2023-05-16T05:52:27;9.38;;;1.15;;
71665;SDS011;59503;53.486;10.196;2023-05-16T05:54:52;11.17;;;1.47;;
71665;SDS011;59503;53.486;10.196;2023-05-16T05:57:18;10.27;;;1.25;;
71665;SDS011;59503;53.486;10.196;2023-05-16T05:59:44;11.13;;;1.17;;
71665;SDS011;59503;53.486;10.196;2023-05-16T06:02:10;8.48;;;1.10;;
71665;SDS011;59503;53.486;10.196;2023-05-16T06:04:35;13.20;;;1.33;;
71665;SDS011;59503;53.486;10.196;2023-05-16T06:07:00;14.13;;;1.60;;
71665;SDS011;59503;53.486;10.196;2023-05-16T06:09:26;12.33;;;1.83;;
71665;SDS011;59503;53.486;10.196;2023-05-16T06:11:51;12.02;;;1.38;;
71665;SDS011;59503;53.486;10.196;2023-05-16T06:14:16;7.90;;;1.37;;
71665;SDS011;59503;53.486;10.196;2023-05-16T06:16:42;10.37;;;1.53;;
71665;SDS011;59503;53.486;10.196;2023-05-16T06:19:07;10.10;;;1.00;;
71665;SDS011;59503;53.486;10.196;2023-05-16T06:21:33;11.98;;;1.65;;
71665;SDS011;59503;53.486;10.196;2023-05-16T06:23:58;12.77;;;1.47;;
71665;SDS011;59503;53.486;10.196;2023-05-16T06:26:24;7.77;;;1.30;;
71665;SDS011;59503;53.486;10.196;2023-05-16T06:28:49;4.37;;;0.80;;
71665;SDS011;59503;53.486;10.196;2023-05-16T06:31:14;12.15;;;0.95;;
71665;SDS011;59503;53.486;10.196;2023-05-16T06:33:40;6.30;;;0.80;;
71665;SDS011;59503;53.486;10.196;2023-05-16T06:36:05;11.73;;;1.03;;
71665;SDS011;59503;53.486;10.196;2023-05-16T06:38:31;7.67;;;1.30;;
71665;SDS011;59503;53.486;10.196;2023-05-16T06:40:56;7.43;;;1.05;;
71665;SDS011;59503;53.486;10.196;2023-05-16T06:43:22;6.80;;;0.70;;
71665;SDS011;59503;53.486;10.196;2023-05-16T06:45:47;15.13;;;2.07;;
71665;SDS011;59503;53.486;10.196;2023-05-16T06:48:13;15.63;;;0.90;;
71665;SDS011;59503;53.486;10.196;2023-05-16T06:50:39;8.05;;;1.27;;
71665;SDS011;59503;53.486;10.196;2023-05-16T06:53:04;13.80;;;1.43;;
71665;SDS011;59503;53.486;10.196;2023-05-16T06:55:31;8.23;;;1.33;;
71665;SDS011;59503;53.486;10.196;2023-05-16T06:57:57;8.55;;;0.98;;
71665;SDS011;59503;53.486;10.196;2023-05-16T07:00:22;8.67;;;1.20;;
71665;SDS011;59503;53.486;10.196;2023-05-16T07:02:48;10.20;;;1.33;;
71665;SDS011;59503;53.486;10.196;2023-05-16T07:05:13;10.90;;;1.33;;
71665;SDS011;59503;53.486;10.196;2023-05-16T07:07:39;13.63;;;1.43;;
71665;SDS011;59503;53.486;10.196;2023-05-16T07:10:04;12.97;;;1.10;;
71665;SDS011;59503;53.486;10.196;2023-05-16T07:12:30;13.90;;;1.33;;
71665;SDS011;59503;53.486;10.196;2023-05-16T07:14:55;6.77;;;1.23;;
71665;SDS011;59503;53.486;10.196;2023-05-16T07:17:21;4.63;;;0.87;;
71665;SDS011;59503;53.486;10.196;2023-05-16T07:19:46;9.80;;;1.50;;
71665;SDS011;59503;53.486;10.196;2023-05-16T07:22:12;7.53;;;0.93;;
71665;SDS011;59503;53.486;10.196;2023-05-16T07:24:37;7.50;;;1.07;;
71665;SDS011;59503;53.486;10.196;2023-05-16T07:27:02;3.23;;;0.90;;
71665;SDS011;59503;53.486;10.196;2023-05-16T07:29:28;6.75;;;0.88;;
71665;SDS011;59503;53.486;10.196;2023-05-16T07:31:54;6.33;;;0.93;;
71665;SDS011;59503;53.486;10.196;2023-05-16T07:34:20;8.18;;;1.10;;
71665;SDS011;59503;53.486;10.196;2023-05-16T07:36:45;3.80;;;0.93;;
71665;SDS011;59503;53.486;10.196;2023-05-16T07:39:11;5.87;;;0.90;;
71665;SDS011;59503;53.486;10.196;2023-05-16T07:41:36;7.63;;;0.77;;
71665;SDS011;59503;53.486;10.196;2023-05-16T07:44:01;7.33;;;0.70;;
71665;SDS011;59503;53.486;10.196;2023-05-16T07:46:27;9.00;;;0.90;;
71665;SDS011;59503;53.486;10.196;2023-05-16T07:48:52;8.87;;;0.87;;
71665;SDS011;59503;53.486;10.196;2023-05-16T07:51:17;5.33;;;0.90;;
71665;SDS011;59503;53.486;10.196;2023-05-16T07:53:43;5.03;;;0.93;;
71665;SDS011;59503;53.486;10.196;2023-05-16T07:56:08;4.93;;;0.70;;
71665;SDS011;59503;53.486;10.196;2023-05-16T07:58:34;6.10;;;0.70;;
71665;SDS011;59503;53.486;10.196;2023-05-16T08:00:59;7.43;;;1.13;;
71665;SDS011;59503;53.486;10.196;2023-05-16T08:03:25;11.47;;;0.80;;
71665;SDS011;59503;53.486;10.196;2023-05-16T08:05:50;5.53;;;1.53;;
71665;SDS011;59503;53.486;10.196;2023-05-16T08:08:16;6.72;;;1.00;;
71665;SDS011;59503;53.486;10.196;2023-05-16T08:10:41;5.43;;;1.00;;
71665;SDS011;59503;53.486;10.196;2023-05-16T08:13:07;6.60;;;1.10;;
71665;SDS011;59503;53.486;10.196;2023-05-16T08:15:32;5.03;;;0.80;;
71665;SDS011;59503;53.486;10.196;2023-05-16T08:17:57;4.07;;;0.73;;
71665;SDS011;59503;53.486;10.196;2023-05-16T08:20:23;4.13;;;0.83;;
71665;SDS011;59503;53.486;10.196;2023-05-16T08:22:52;13.15;;;0.98;;
71665;SDS011;59503;53.486;10.196;2023-05-16T08:25:18;6.88;;;0.65;;
71665;SDS011;59503;53.486;10.196;2023-05-16T08:27:44;3.27;;;0.90;;
71665;SDS011;59503;53.486;10.196;2023-05-16T08:30:11;5.65;;;0.80;;
71665;SDS011;59503;53.486;10.196;2023-05-16T08:32:37;9.52;;;1.35;;
71665;SDS011;59503;53.486;10.196;2023-05-16T08:35:02;9.83;;;0.97;;
71665;SDS011;59503;53.486;10.196;2023-05-16T08:37:28;9.35;;;1.17;;
71665;SDS011;59503;53.486;10.196;2023-05-16T08:39:53;6.47;;;1.03;;
71665;SDS011;59503;53.486;10.196;2023-05-16T08:42:18;6.70;;;1.00;;
71665;SDS011;59503;53.486;10.196;2023-05-16T08:44:44;5.57;;;1.23;;
71665;SDS011;59503;53.486;10.196;2023-05-16T08:47:19;4.90;;;0.80;;
71665;SDS011;59503;53.486;10.196;2023-05-16T08:49:50;7.13;;;0.90;;
71665;SDS011;59503;53.486;10.196;2023-05-16T08:52:18;10.07;;;1.50;;
71665;SDS011;59503;53.486;10.196;2023-05-16T08:54:45;4.07;;;0.90;;
71665;SDS011;59503;53.486;10.196;2023-05-16T08:57:12;3.53;;;0.70;;
71665;SDS011;59503;53.486;10.196;2023-05-16T08:59:39;10.25;;;1.05;;
71665;SDS011;59503;53.486;10.196;2023-05-16T09:02:04;3.50;;;1.00;;
71665;SDS011;59503;53.486;10.196;2023-05-16T09:04:30;6.17;;;0.80;;
71665;SDS011;59503;53.486;10.196;2023-05-16T09:06:56;6.57;;;1.90;;
71665;SDS011;59503;53.486;10.196;2023-05-16T09:09:21;8.20;;;1.10;;
71665;SDS011;59503;53.486;10.196;2023-05-16T09:11:47;11.77;;;1.60;;
71665;SDS011;59503;53.486;10.196;2023-05-16T09:14:13;12.10;;;1.07;;
71665;SDS011;59503;53.486;10.196;2023-05-16T09:16:38;9.30;;;1.30;;
71665;SDS011;59503;53.486;10.196;2023-05-16T09:19:04;8.47;;;1.00;;
71665;SDS011;59503;53.486;10.196;2023-05-16T09:21:30;5.70;;;0.80;;
71665;SDS011;59503;53.486;10.196;2023-05-16T09:24:03;6.78;;;1.15;;
71665;SDS011;59503;53.486;10.196;2023-05-16T09:26:34;4.93;;;1.10;;
71665;SDS011;59503;53.486;10.196;2023-05-16T09:29:00;6.80;;;1.00;;
71665;SDS011;59503;53.486;10.196;2023-05-16T09:31:26;5.25;;;0.95;;
71665;SDS011;59503;53.486;10.196;2023-05-16T09:33:56;8.87;;;1.00;;
71665;SDS011;59503;53.486;10.196;2023-05-16T09:36:21;4.57;;;0.80;;
71665;SDS011;59503;53.486;10.196;2023-05-16T09:38:47;10.70;;;1.33;;
71665;SDS011;59503;53.486;10.196;2023-05-16T09:41:15;7.28;;;0.75;;
71665;SDS011;59503;53.486;10.196;2023-05-16T09:43:41;2.73;;;0.70;;
71665;SDS011;59503;53.486;10.196;2023-05-16T09:46:07;5.70;;;1.00;;
71665;SDS011;59503;53.486;10.196;2023-05-16T09:48:36;7.63;;;1.42;;
71665;SDS011;59503;53.486;10.196;2023-05-16T09:51:05;14.40;;;1.37;;
71665;SDS011;59503;53.486;10.196;2023-05-16T09:53:32;6.10;;;1.10;;
71665;SDS011;59503;53.486;10.196;2023-05-16T09:55:58;3.17;;;0.88;;
71665;SDS011;59503;53.486;10.196;2023-05-16T09:58:43;12.18;;;1.30;;
71665;SDS011;59503;53.486;10.196;2023-05-16T10:01:11;7.50;;;1.20;;
71665;SDS011;59503;53.486;10.196;2023-05-16T10:03:37;6.90;;;1.60;;
71665;SDS011;59503;53.486;10.196;2023-05-16T10:06:04;6.70;;;1.40;;
71665;SDS011;59503;53.486;10.196;2023-05-16T10:08:31;5.40;;;1.45;;
71665;SDS011;59503;53.486;10.196;2023-05-16T10:11:00;12.45;;;0.77;;
71665;SDS011;59503;53.486;10.196;2023-05-16T10:13:30;4.60;;;0.90;;
71665;SDS011;59503;53.486;10.196;2023-05-16T10:15:58;5.88;;;0.95;;
71665;SDS011;59503;53.486;10.196;2023-05-16T10:18:28;6.30;;;0.95;;
71665;SDS011;59503;53.486;10.196;2023-05-16T10:20:56;7.80;;;0.73;;
71665;SDS011;59503;53.486;10.196;2023-05-16T10:23:26;6.28;;;0.95;;
71665;SDS011;59503;53.486;10.196;2023-05-16T10:25:52;9.90;;;1.47;;
71665;SDS011;59503;53.486;10.196;2023-05-16T10:28:21;6.40;;;0.95;;
71665;SDS011;59503;53.486;10.196;2023-05-16T10:30:48;8.73;;;1.48;;
71665;SDS011;59503;53.486;10.196;2023-05-16T10:33:15;8.95;;;1.48;;
71665;SDS011;59503;53.486;10.196;2023-05-16T10:35:43;5.97;;;0.95;;
71665;SDS011;59503;53.486;10.196;2023-05-16T10:38:10;3.57;;;0.70;;
71665;SDS011;59503;53.486;10.196;2023-05-16T10:40:39;7.25;;;0.70;;
71665;SDS011;59503;53.486;10.196;2023-05-16T10:43:06;6.75;;;1.27;;
71665;SDS011;59503;53.486;10.196;2023-05-16T10:45:33;7.82;;;1.23;;
71665;SDS011;59503;53.486;10.196;2023-05-16T10:48:04;7.32;;;1.13;;
71665;SDS011;59503;53.486;10.196;2023-05-16T10:50:40;4.93;;;1.00;;
71665;SDS011;59503;53.486;10.196;2023-05-16T10:53:11;6.03;;;1.50;;
71665;SDS011;59503;53.486;10.196;2023-05-16T10:58:24;7.00;;;1.48;;
71665;SDS011;59503;53.486;10.196;2023-05-16T11:04:14;8.00;;;1.50;;
71665;SDS011;59503;53.486;10.196;2023-05-16T11:09:06;4.43;;;0.98;;
71665;SDS011;59503;53.486;10.196;2023-05-16T11:14:05;5.78;;;1.25;;
71665;SDS011;59503;53.486;10.196;2023-05-16T11:16:30;10.33;;;1.30;;
71665;SDS011;59503;53.486;10.196;2023-05-16T11:19:05;10.77;;;1.02;;
71665;SDS011;59503;53.486;10.196;2023-05-16T11:27:34;9.50;;;0.80;;
71665;SDS011;59503;53.486;10.196;2023-05-16T11:30:21;10.23;;;0.75;;
71665;SDS011;59503;53.486;10.196;2023-05-16T11:32:47;6.07;;;0.85;;
71665;SDS011;59503;53.486;10.196;2023-05-16T11:35:13;11.77;;;1.20;;
71665;SDS011;59503;53.486;10.196;2023-05-16T11:37:41;4.15;;;0.80;;
71665;SDS011;59503;53.486;10.196;2023-05-16T11:40:08;6.93;;;1.20;;
71665;SDS011;59503;53.486;10.196;2023-05-16T11:42:36;8.48;;;1.10;;
71665;SDS011;59503;53.486;10.196;2023-05-16T11:47:33;4.47;;;0.90;;
71665;SDS011;59503;53.486;10.196;2023-05-16T11:50:03;7.55;;;1.00;;
71665;SDS011;59503;53.486;10.196;2023-05-16T11:52:30;6.90;;;1.20;;
71665;SDS011;59503;53.486;10.196;2023-05-16T11:54:57;2.17;;;0.70;;
71665;SDS011;59503;53.486;10.196;2023-05-16T11:57:25;6.28;;;0.90;;
71665;SDS011;59503;53.486;10.196;2023-05-16T11:59:51;7.82;;;0.80;;
71665;SDS011;59503;53.486;10.196;2023-05-16T12:02:17;2.80;;;0.90;;
71665;SDS011;59503;53.486;10.196;2023-05-16T12:04:45;6.23;;;1.20;;
71665;SDS011;59503;53.486;10.196;2023-05-16T12:07:14;8.93;;;1.17;;
71665;SDS011;59503;53.486;10.196;2023-05-16T12:09:40;5.33;;;1.10;;
71665;SDS011;59503;53.486;10.196;2023-05-16T12:12:06;8.88;;;1.08;;
71665;SDS011;59503;53.486;10.196;2023-05-16T12:14:31;5.63;;;0.90;;
71665;SDS011;59503;53.486;10.196;2023-05-16T12:16:57;5.55;;;0.90;;
71665;SDS011;59503;53.486;10.196;2023-05-16T12:19:23;9.60;;;0.70;;
71665;SDS011;59503;53.486;10.196;2023-05-16T12:21:51;3.30;;;0.90;;
71665;SDS011;59503;53.486;10.196;2023-05-16T12:24:18;6.15;;;1.50;;
71665;SDS011;59503;53.486;10.196;2023-05-16T12:26:44;3.88;;;0.77;;
71665;SDS011;59503;53.486;10.196;2023-05-16T12:29:10;2.10;;;0.63;;
71665;SDS011;59503;53.486;10.196;2023-05-16T12:31:37;6.90;;;2.05;;
71665;SDS011;59503;53.486;10.196;2023-05-16T12:34:13;7.78;;;1.42;;
71665;SDS011;59503;53.486;10.196;2023-05-16T12:36:42;8.57;;;1.20;;
71665;SDS011;59503;53.486;10.196;2023-05-16T12:39:10;7.72;;;1.17;;
71665;SDS011;59503;53.486;10.196;2023-05-16T12:41:39;8.23;;;1.08;;
71665;SDS011;59503;53.486;10.196;2023-05-16T12:44:13;13.23;;;1.40;;
71665;SDS011;59503;53.486;10.196;2023-05-16T12:46:42;7.30;;;0.90;;
71665;SDS011;59503;53.486;10.196;2023-05-16T12:49:08;3.47;;;0.70;;
71665;SDS011;59503;53.486;10.196;2023-05-16T12:51:34;6.33;;;0.90;;
71665;SDS011;59503;53.486;10.196;2023-05-16T12:54:10;14.85;;;1.58;;
71665;SDS011;59503;53.486;10.196;2023-05-16T12:56:39;1.98;;;0.70;;
71665;SDS011;59503;53.486;10.196;2023-05-16T12:59:06;3.95;;;0.60;;
71665;SDS011;59503;53.486;10.196;2023-05-16T13:01:33;2.35;;;0.60;;
71665;SDS011;59503;53.486;10.196;2023-05-16T13:03:59;4.77;;;0.83;;
71665;SDS011;59503;53.486;10.196;2023-05-16T13:06:25;5.07;;;0.70;;
71665;SDS011;59503;53.486;10.196;2023-05-16T13:08:51;5.07;;;0.70;;
71665;SDS011;59503;53.486;10.196;2023-05-16T13:11:17;6.33;;;0.70;;
71665;SDS011;59503;53.486;10.196;2023-05-16T13:13:43;6.20;;;0.95;;
71665;SDS011;59503;53.486;10.196;2023-05-16T13:16:09;4.90;;;0.73;;
71665;SDS011;59503;53.486;10.196;2023-05-16T13:18:34;4.23;;;0.80;;
71665;SDS011;59503;53.486;10.196;2023-05-16T13:21:01;9.57;;;1.45;;
71665;SDS011;59503;53.486;10.196;2023-05-16T13:23:28;6.60;;;0.80;;
71665;SDS011;59503;53.486;10.196;2023-05-16T13:25:54;5.40;;;0.90;;
71665;SDS011;59503;53.486;10.196;2023-05-16T13:28:20;3.03;;;0.63;;
71665;SDS011;59503;53.486;10.196;2023-05-16T13:30:45;8.55;;;0.80;;
71665;SDS011;59503;53.486;10.196;2023-05-16T13:33:11;12.23;;;0.90;;
71665;SDS011;59503;53.486;10.196;2023-05-16T13:35:36;3.43;;;0.90;;
71665;SDS011;59503;53.486;10.196;2023-05-16T13:38:02;5.13;;;0.75;;
71665;SDS011;59503;53.486;10.196;2023-05-16T13:40:28;8.67;;;1.03;;
71665;SDS011;59503;53.486;10.196;2023-05-16T13:42:53;2.40;;;0.80;;
71665;SDS011;59503;53.486;10.196;2023-05-16T13:45:19;6.30;;;1.00;;
71665;SDS011;59503;53.486;10.196;2023-05-16T13:47:45;5.55;;;0.82;;
71665;SDS011;59503;53.486;10.196;2023-05-16T13:50:10;2.90;;;0.80;;
71665;SDS011;59503;53.486;10.196;2023-05-16T13:52:36;7.43;;;0.70;;
71665;SDS011;59503;53.486;10.196;2023-05-16T13:55:03;7.10;;;0.77;;
71665;SDS011;59503;53.486;10.196;2023-05-16T13:57:29;8.38;;;0.90;;
71665;SDS011;59503;53.486;10.196;2023-05-16T13:59:55;7.30;;;0.80;;
71665;SDS011;59503;53.486;10.196;2023-05-16T14:02:20;9.67;;;0.87;;
71665;SDS011;59503;53.486;10.196;2023-05-16T14:04:46;8.45;;;0.95;;
71665;SDS011;59503;53.486;10.196;2023-05-16T14:07:12;9.13;;;0.90;;
71665;SDS011;59503;53.486;10.196;2023-05-16T14:09:37;4.32;;;0.50;;
71665;SDS011;59503;53.486;10.196;2023-05-16T14:12:06;9.70;;;0.70;;
71665;SDS011;59503;53.486;10.196;2023-05-16T14:14:32;7.67;;;0.70;;
71665;SDS011;59503;53.486;10.196;2023-05-16T14:16:58;6.50;;;0.95;;
71665;SDS011;59503;53.486;10.196;2023-05-16T14:19:23;2.63;;;0.63;;
71665;SDS011;59503;53.486;10.196;2023-05-16T14:21:49;3.42;;;0.70;;
71665;SDS011;59503;53.486;10.196;2023-05-16T14:24:14;5.23;;;0.80;;
71665;SDS011;59503;53.486;10.196;2023-05-16T14:26:39;3.27;;;0.70;;
71665;SDS011;59503;53.486;10.196;2023-05-16T14:29:05;8.40;;;0.90;;
71665;SDS011;59503;53.486;10.196;2023-05-16T14:31:31;3.70;;;0.50;;
71665;SDS011;59503;53.486;10.196;2023-05-16T14:33:57;4.80;;;0.60;;
71665;SDS011;59503;53.486;10.196;2023-05-16T14:36:23;4.30;;;0.65;;
71665;SDS011;59503;53.486;10.196;2023-05-16T14:38:48;2.97;;;0.80;;
71665;SDS011;59503;53.486;10.196;2023-05-16T14:41:14;8.50;;;0.90;;
71665;SDS011;59503;53.486;10.196;2023-05-16T14:43:40;5.75;;;1.10;;
71665;SDS011;59503;53.486;10.196;2023-05-16T14:46:05;6.37;;;1.63;;
71665;SDS011;59503;53.486;10.196;2023-05-16T14:48:31;5.43;;;0.93;;
71665;SDS011;59503;53.486;10.196;2023-05-16T14:50:57;9.70;;;0.88;;
71665;SDS011;59503;53.486;10.196;2023-05-16T14:53:23;7.55;;;1.10;;
71665;SDS011;59503;53.486;10.196;2023-05-16T14:55:48;4.40;;;0.80;;
71665;SDS011;59503;53.486;10.196;2023-05-16T14:58:14;3.80;;;0.70;;
71665;SDS011;59503;53.486;10.196;2023-05-16T15:00:39;5.88;;;0.85;;
71665;SDS011;59503;53.486;10.196;2023-05-16T15:03:05;8.73;;;1.10;;
71665;SDS011;59503;53.486;10.196;2023-05-16T15:05:30;6.37;;;1.87;;